sensor_id;sensor_type;location;lat;lon;timestamp;pressure;altitude;pressure_sealevel;temperature;humidity
7407;BME280;3745;56.964;24.128;2024-01-15T00:01:55;98372.78;;;-0.58;100.00
7407;BME280;3745;56.964;24.128;2024-01-15T00:04:20;98369.34;;;-0.66;100.00
7407;BME280;3745;56.964;24.128;2024-01-15T00:06:46;98392.78;;;-0.51;100.00
7407;BME280;3745;56.964;24.128;2024-01-15T00:09:11;98396.09;;;-0.52;100.00
7407;BME280;3745;56.964;24.128;2024-01-15T00:11:37;98381.13;;;-0.56;100.00
7407;BME280;3745;56.964;24.128;2024-01-15T00:14:02;98338.56;;;-0.74;100.00
7407;BME280;3745;56.964;24.128;2024-01-15T00:16:28;98360.28;;;-0.64;100.00
7407;BME280;3745;56.964;24.128;2024-01-15T00:18:54;98386.25;;;-0.46;100.00
7407;BME280;3745;56.964;24.128;2024-01-15T00:21:19;98355.38;;;-0.61;100.00
7407;BME280;3745;56.964;24.128;2024-01-15T00:23:45;98374.66;;;-0.47;100.00
7407;BME280;3745;56.964;24.128;2024-01-15T00:26:11;98344.59;;;-0.63;100.00
7407;BME280;3745;56.964;24.128;2024-01-15T00:28:37;98379.56;;;-0.50;100.00
7407;BME280;3745;56.964;24.128;2024-01-15T00:31:04;98389.53;;;-0.47;100.00
7407;BME280;3745;56.964;24.128;2024-01-15T00:33:30;98382.19;;;-0.41;100.00
7407;BME280;3745;56.964;24.128;2024-01-15T00:35:56;98381.41;;;-0.40;100.00
7407;BME280;3745;56.964;24.128;2024-01-15T00:38:22;98381.31;;;-0.45;100.00
7407;BME280;3745;56.964;24.128;2024-01-15T00:40:48;98374.75;;;-0.41;100.00
7407;BME280;3745;56.964;24.128;2024-01-15T00:43:13;98368.03;;;-0.45;100.00
7407;BME280;3745;56.964;24.128;2024-01-15T00:45:40;98331.47;;;-0.56;100.00
7407;BME280;3745;56.964;24.128;2024-01-15T00:48:05;98362.34;;;-0.40;100.00
7407;BME280;3745;56.964;24.128;2024-01-15T00:50:31;98352.34;;;-0.43;100.00
7407;BME280;3745;56.964;24.128;2024-01-15T00:52:56;98217.00;;;-1.19;100.00
7407;BME280;3745;56.964;24.128;2024-01-15T00:55:22;98356.81;;;-0.25;100.00
7407;BME280;3745;56.964;24.128;2024-01-15T00:57:48;98361.78;;;-0.25;100.00
7407;BME280;3745;56.964;24.128;2024-01-15T01:00:14;98326.75;;;-0.40;100.00
7407;BME280;3745;56.964;24.128;2024-01-15T01:02:40;98347.81;;;-0.19;100.00
7407;BME280;3745;56.964;24.128;2024-01-15T01:05:06;98341.91;;;-0.25;100.00
7407;BME280;3745;56.964;24.128;2024-01-15T01:07:32;98344.50;;;-0.19;100.00
7407;BME280;3745;56.964;24.128;2024-01-15T01:09:57;98309.28;;;-0.45;100.00
7407;BME280;3745;56.964;24.128;2024-01-15T01:12:23;98340.31;;;-0.20;100.00
7407;BME280;3745;56.964;24.128;2024-01-15T01:14:48;98348.53;;;-0.24;100.00
7407;BME280;3745;56.964;24.128;2024-01-15T01:17:14;98268.25;;;-0.73;100.00
7407;BME280;3745;56.964;24.128;2024-01-15T01:19:39;98331.88;;;-0.31;100.00
7407;BME280;3745;56.964;24.128;2024-01-15T01:22:05;98339.47;;;-0.22;100.00
7407;BME280;3745;56.964;24.128;2024-01-15T01:24:30;98326.81;;;-0.37;100.00
7407;BME280;3745;56.964;24.128;2024-01-15T01:26:56;98335.09;;;-0.35;100.00
7407;BME280;3745;56.964;24.128;2024-01-15T01:29:22;98333.53;;;-0.30;100.00
7407;BME280;3745;56.964;24.128;2024-01-15T01:31:48;98328.59;;;-0.27;100.00
7407;BME280;3745;56.964;24.128;2024-01-15T01:34:14;98333.53;;;-0.30;100.00
7407;BME280;3745;56.964;24.128;2024-01-15T01:36:40;98331.81;;;-0.34;100.00
7407;BME280;3745;56.964;24.128;2024-01-15T01:39:06;98301.72;;;-0.52;100.00
7407;BME280;3745;56.964;24.128;2024-01-15T01:41:31;98311.94;;;-0.34;100.00
7407;BME280;3745;56.964;24.128;2024-01-15T01:43:57;98326.81;;;-0.37;100.00
7407;BME280;3745;56.964;24.128;2024-01-15T01:46:24;98317.66;;;-0.38;100.00
7407;BME280;3745;56.964;24.128;2024-01-15T01:48:52;98316.81;;;-0.40;100.00
7407;BME280;3745;56.964;24.128;2024-01-15T01:51:17;98288.28;;;-0.64;100.00
7407;BME280;3745;56.964;24.128;2024-01-15T01:53:44;98310.06;;;-0.47;100.00
7407;BME280;3745;56.964;24.128;2024-01-15T01:56:13;98300.00;;;-0.55;100.00
7407;BME280;3745;56.964;24.128;2024-01-15T01:58:39;98316.78;;;-0.43;100.00
7407;BME280;3745;56.964;24.128;2024-01-15T02:01:06;98313.41;;;-0.45;100.00
7407;BME280;3745;56.964;24.128;2024-01-15T02:03:32;98295.22;;;-0.44;100.00
7407;BME280;3745;56.964;24.128;2024-01-15T02:05:59;98303.38;;;-0.51;100.00
7407;BME280;3745;56.964;24.128;2024-01-15T02:08:25;98301.78;;;-0.49;100.00
7407;BME280;3745;56.964;24.128;2024-01-15T02:10:50;98239.84;;;-0.90;100.00
7407;BME280;3745;56.964;24.128;2024-01-15T02:13:17;98288.44;;;-0.55;100.00
7407;BME280;3745;56.964;24.128;2024-01-15T02:15:43;98238.38;;;-0.79;100.00
7407;BME280;3745;56.964;24.128;2024-01-15T02:18:08;98241.75;;;-0.74;100.00
7407;BME280;3745;56.964;24.128;2024-01-15T02:20:34;98250.03;;;-0.75;100.00
7407;BME280;3745;56.964;24.128;2024-01-15T02:25:28;98252.78;;;-0.58;100.00
7407;BME280;3745;56.964;24.128;2024-01-15T02:27:54;98281.97;;;-0.46;100.00
7407;BME280;3745;56.964;24.128;2024-01-15T02:30:20;98246.72;;;-0.74;100.00
7407;BME280;3745;56.964;24.128;2024-01-15T02:32:46;98283.41;;;-0.58;100.00
7407;BME280;3745;56.964;24.128;2024-01-15T02:35:11;98275.09;;;-0.60;100.00
7407;BME280;3745;56.964;24.128;2024-01-15T02:37:37;98271.78;;;-0.62;100.00
7407;BME280;3745;56.964;24.128;2024-01-15T02:40:02;98249.16;;;-0.77;100.00
7407;BME280;3745;56.964;24.128;2024-01-15T02:42:28;98188.28;;;-1.06;100.00
7407;BME280;3745;56.964;24.128;2024-01-15T02:44:54;98244.34;;;-0.68;100.00
7407;BME280;3745;56.964;24.128;2024-01-15T02:47:19;98257.78;;;-0.57;100.00
7407;BME280;3745;56.964;24.128;2024-01-15T02:49:45;98238.53;;;-0.70;100.00
7407;BME280;3745;56.964;24.128;2024-01-15T02:52:10;98256.94;;;-0.59;100.00
7407;BME280;3745;56.964;24.128;2024-01-15T02:54:36;98257.03;;;-0.52;100.00
7407;BME280;3745;56.964;24.128;2024-01-15T02:57:02;98242.03;;;-0.59;100.00
7407;BME280;3745;56.964;24.128;2024-01-15T02:59:27;98255.41;;;-0.50;100.00
7407;BME280;3745;56.964;24.128;2024-01-15T03:01:53;98248.69;;;-0.55;100.00
7407;BME280;3745;56.964;24.128;2024-01-15T03:04:18;98251.13;;;-0.59;100.00
7407;BME280;3745;56.964;24.128;2024-01-15T03:06:44;98246.00;;;-0.68;100.00
7407;BME280;3745;56.964;24.128;2024-01-15T03:09:09;98249.44;;;-0.62;100.00
7407;BME280;3745;56.964;24.128;2024-01-15T03:11:38;98251.91;;;-0.62;100.00
7407;BME280;3745;56.964;24.128;2024-01-15T03:14:04;98232.91;;;-0.58;100.00
7407;BME280;3745;56.964;24.128;2024-01-15T03:16:30;98217.09;;;-0.65;100.00
7407;BME280;3745;56.964;24.128;2024-01-15T03:18:55;98237.13;;;-0.56;100.00
7407;BME280;3745;56.964;24.128;2024-01-15T03:21:21;98218.75;;;-0.64;100.00
7407;BME280;3745;56.964;24.128;2024-01-15T03:23:46;98230.56;;;-0.50;100.00
7407;BME280;3745;56.964;24.128;2024-01-15T03:26:12;98240.59;;;-0.44;100.00
7407;BME280;3745;56.964;24.128;2024-01-15T03:28:37;98228.88;;;-0.51;100.00
7407;BME280;3745;56.964;24.128;2024-01-15T03:31:03;98181.09;;;-0.91;100.00
7407;BME280;3745;56.964;24.128;2024-01-15T03:33:28;98224.66;;;-0.59;100.00
7407;BME280;3745;56.964;24.128;2024-01-15T03:35:54;98202.22;;;-0.65;100.00
7407;BME280;3745;56.964;24.128;2024-01-15T03:38:20;98219.84;;;-0.48;100.00
7407;BME280;3745;56.964;24.128;2024-01-15T03:40:45;98180.66;;;-0.66;100.00
7407;BME280;3745;56.964;24.128;2024-01-15T03:43:12;98180.72;;;-0.63;100.00
7407;BME280;3745;56.964;24.128;2024-01-15T03:45:37;98171.53;;;-0.67;100.00
7407;BME280;3745;56.964;24.128;2024-01-15T03:48:03;98204.19;;;-0.42;100.00
7407;BME280;3745;56.964;24.128;2024-01-15T03:50:29;98206.69;;;-0.41;100.00
7407;BME280;3745;56.964;24.128;2024-01-15T03:52:54;98169.16;;;-0.61;100.00
7407;BME280;3745;56.964;24.128;2024-01-15T03:55:20;98172.56;;;-0.54;100.00
7407;BME280;3745;56.964;24.128;2024-01-15T03:57:46;98179.16;;;-0.55;100.00
7407;BME280;3745;56.964;24.128;2024-01-15T04:00:12;98176.72;;;-0.53;100.00
7407;BME280;3745;56.964;24.128;2024-01-15T04:02:37;98196.72;;;-0.44;100.00
7407;BME280;3745;56.964;24.128;2024-01-15T04:05:03;98177.53;;;-0.56;100.00
7407;BME280;3745;56.964;24.128;2024-01-15T04:07:29;98147.38;;;-0.77;100.00
7407;BME280;3745;56.964;24.128;2024-01-15T04:09:55;98185.94;;;-0.44;100.00
7407;BME280;3745;56.964;24.128;2024-01-15T04:12:20;98185.94;;;-0.44;100.00
7407;BME280;3745;56.964;24.128;2024-01-15T04:14:46;98179.97;;;-0.59;100.00
7407;BME280;3745;56.964;24.128;2024-01-15T04:17:11;98153.13;;;-0.81;100.00
7407;BME280;3745;56.964;24.128;2024-01-15T04:19:37;98179.03;;;-0.64;100.00
7407;BME280;3745;56.964;24.128;2024-01-15T04:22:02;97982.91;;;-1.82;100.00
7407;BME280;3745;56.964;24.128;2024-01-15T04:24:28;98162.31;;;-0.74;100.00
7407;BME280;3745;56.964;24.128;2024-01-15T04:26:53;98180.81;;;-0.57;100.00
7407;BME280;3745;56.964;24.128;2024-01-15T04:29:19;98179.13;;;-0.58;100.00
7407;BME280;3745;56.964;24.128;2024-01-15T04:31:45;98130.81;;;-0.81;100.00
7407;BME280;3745;56.964;24.128;2024-01-15T04:34:10;98176.69;;;-0.55;100.00
7407;BME280;3745;56.964;24.128;2024-01-15T04:36:39;98172.59;;;-0.52;100.00
7407;BME280;3745;56.964;24.128;2024-01-15T04:39:06;98120.88;;;-0.81;100.00
7407;BME280;3745;56.964;24.128;2024-01-15T04:41:31;98159.31;;;-0.56;100.00
7407;BME280;3745;56.964;24.128;2024-01-15T04:43:57;98151.72;;;-0.65;100.00
7407;BME280;3745;56.964;24.128;2024-01-15T04:46:22;98159.22;;;-0.61;100.00
7407;BME280;3745;56.964;24.128;2024-01-15T04:48:48;97974.03;;;-1.70;100.00
7407;BME280;3745;56.964;24.128;2024-01-15T04:51:13;98138.44;;;-0.69;100.00
7407;BME280;3745;56.964;24.128;2024-01-15T04:53:39;98129.34;;;-0.67;100.00
7407;BME280;3745;56.964;24.128;2024-01-15T04:56:05;98127.81;;;-0.59;100.00
7407;BME280;3745;56.964;24.128;2024-01-15T04:58:31;98131.19;;;-0.53;100.00
7407;BME280;3745;56.964;24.128;2024-01-15T05:00:57;98152.88;;;-0.43;100.00
7407;BME280;3745;56.964;24.128;2024-01-15T05:03:22;98141.31;;;-0.38;100.00
7407;BME280;3745;56.964;24.128;2024-01-15T05:05:48;98134.66;;;-0.42;100.00
7407;BME280;3745;56.964;24.128;2024-01-15T05:08:13;98097.94;;;-0.65;100.00
7407;BME280;3745;56.964;24.128;2024-01-15T05:10:39;98129.75;;;-0.36;100.00
7407;BME280;3745;56.964;24.128;2024-01-15T05:13:04;98135.56;;;-0.37;100.00
7407;BME280;3745;56.964;24.128;2024-01-15T05:15:30;98124.88;;;-0.30;100.00
7407;BME280;3745;56.964;24.128;2024-01-15T05:17:55;98118.16;;;-0.37;100.00
7407;BME280;3745;56.964;24.128;2024-01-15T05:20:21;98123.25;;;-0.28;100.00
7407;BME280;3745;56.964;24.128;2024-01-15T05:22:47;98067.47;;;-0.53;100.00
7407;BME280;3745;56.964;24.128;2024-01-15T05:25:12;98064.91;;;-0.58;100.00
7407;BME280;3745;56.964;24.128;2024-01-15T05:27:38;98058.25;;;-0.62;100.00
7407;BME280;3745;56.964;24.128;2024-01-15T05:30:04;98108.38;;;-0.25;100.00
7407;BME280;3745;56.964;24.128;2024-01-15T05:32:30;98100.06;;;-0.27;100.00
7407;BME280;3745;56.964;24.128;2024-01-15T05:34:55;98091.81;;;-0.26;100.00
7407;BME280;3745;56.964;24.128;2024-01-15T05:37:21;98089.28;;;-0.31;100.00
7407;BME280;3745;56.964;24.128;2024-01-15T05:39:46;98046.78;;;-0.53;100.00
7407;BME280;3745;56.964;24.128;2024-01-15T05:42:12;98093.38;;;-0.34;100.00
7407;BME280;3745;56.964;24.128;2024-01-15T05:44:37;98072.59;;;-0.39;100.00
7407;BME280;3745;56.964;24.128;2024-01-15T05:47:03;98088.41;;;-0.34;100.00
7407;BME280;3745;56.964;24.128;2024-01-15T05:49:29;98071.75;;;-0.41;100.00
7407;BME280;3745;56.964;24.128;2024-01-15T05:51:55;98100.81;;;-0.33;100.00
7407;BME280;3745;56.964;24.128;2024-01-15T05:54:20;98090.00;;;-0.36;100.00
7407;BME280;3745;56.964;24.128;2024-01-15T05:56:46;98076.75;;;-0.38;100.00
7407;BME280;3745;56.964;24.128;2024-01-15T05:59:12;98076.72;;;-0.41;100.00
7407;BME280;3745;56.964;24.128;2024-01-15T06:01:37;98003.41;;;-0.80;100.00
7407;BME280;3745;56.964;24.128;2024-01-15T06:04:03;98085.13;;;-0.32;100.00
7407;BME280;3745;56.964;24.128;2024-01-15T06:06:30;98083.47;;;-0.31;100.00
7407;BME280;3745;56.964;24.128;2024-01-15T06:08:56;98065.09;;;-0.42;100.00
7407;BME280;3745;56.964;24.128;2024-01-15T06:11:29;98072.66;;;-0.35;100.00
7407;BME280;3745;56.964;24.128;2024-01-15T06:13:55;98080.16;;;-0.30;100.00
7407;BME280;3745;56.964;24.128;2024-01-15T06:16:21;98075.19;;;-0.30;100.00
7407;BME280;3745;56.964;24.128;2024-01-15T06:18:47;98010.16;;;-0.70;100.00
7407;BME280;3745;56.964;24.128;2024-01-15T06:21:13;98083.50;;;-0.28;100.00
7407;BME280;3745;56.964;24.128;2024-01-15T06:23:40;98075.25;;;-0.24;100.00
7407;BME280;3745;56.964;24.128;2024-01-15T06:26:05;98039.44;;;-0.43;100.00
7407;BME280;3745;56.964;24.128;2024-01-15T06:28:31;98058.63;;;-0.31;100.00
7407;BME280;3745;56.964;24.128;2024-01-15T06:30:57;98073.63;;;-0.25;100.00
7407;BME280;3745;56.964;24.128;2024-01-15T06:33:23;98072.00;;;-0.20;100.00
7407;BME280;3745;56.964;24.128;2024-01-15T06:35:50;98075.41;;;-0.12;100.00
7407;BME280;3745;56.964;24.128;2024-01-15T06:38:16;98072.00;;;-0.20;100.00
7407;BME280;3745;56.964;24.128;2024-01-15T06:40:42;98068.72;;;-0.19;100.00
7407;BME280;3745;56.964;24.128;2024-01-15T06:43:14;98038.81;;;-0.28;100.00
7407;BME280;3745;56.964;24.128;2024-01-15T06:45:41;97940.41;;;-0.91;100.00
7407;BME280;3745;56.964;24.128;2024-01-15T06:48:06;98012.19;;;-0.38;100.00
7407;BME280;3745;56.964;24.128;2024-01-15T06:50:44;98030.56;;;-0.21;100.00
7407;BME280;3745;56.964;24.128;2024-01-15T06:53:10;98051.53;;;0.00;100.00
7407;BME280;3745;56.964;24.128;2024-01-15T06:55:37;98043.25;;;0.00;100.00
7407;BME280;3745;56.964;24.128;2024-01-15T06:58:03;98000.72;;;-0.24;100.00
7407;BME280;3745;56.964;24.128;2024-01-15T07:00:30;97999.09;;;-0.25;100.00
7407;BME280;3745;56.964;24.128;2024-01-15T07:02:55;98030.81;;;0.00;100.00
7407;BME280;3745;56.964;24.128;2024-01-15T07:05:21;98015.72;;;-0.15;100.00
7407;BME280;3745;56.964;24.128;2024-01-15T07:07:50;98018.34;;;-0.05;100.00
7407;BME280;3745;56.964;24.128;2024-01-15T07:10:16;97985.88;;;-0.18;100.00
7407;BME280;3745;56.964;24.128;2024-01-15T07:12:43;98032.56;;;0.10;100.00
7407;BME280;3745;56.964;24.128;2024-01-15T07:15:10;97995.97;;;-0.03;100.00
7407;BME280;3745;56.964;24.128;2024-01-15T07:17:36;98039.22;;;0.11;100.00
7407;BME280;3745;56.964;24.128;2024-01-15T07:20:06;98001.00;;;0.00;100.00
7407;BME280;3745;56.964;24.128;2024-01-15T07:22:33;98022.63;;;0.10;100.00
7407;BME280;3745;56.964;24.128;2024-01-15T07:24:59;98027.72;;;0.25;100.00
7407;BME280;3745;56.964;24.128;2024-01-15T07:27:24;98011.00;;;0.06;100.00
7407;BME280;3745;56.964;24.128;2024-01-15T07:29:50;98026.13;;;0.27;100.00
7407;BME280;3745;56.964;24.128;2024-01-15T07:32:16;98026.91;;;0.28;100.00
7407;BME280;3745;56.964;24.128;2024-01-15T07:34:41;98007.81;;;0.22;100.00
7407;BME280;3745;56.964;24.128;2024-01-15T07:37:07;98027.72;;;0.25;100.00
7407;BME280;3745;56.964;24.128;2024-01-15T07:39:33;98021.19;;;0.33;100.00
7407;BME280;3745;56.964;24.128;2024-01-15T07:42:01;98021.22;;;0.36;100.00
7407;BME280;3745;56.964;24.128;2024-01-15T07:44:27;98022.91;;;0.43;100.00
7407;BME280;3745;56.964;24.128;2024-01-15T07:46:53;98021.25;;;0.39;100.00
7407;BME280;3745;56.964;24.128;2024-01-15T07:49:19;97984.72;;;0.35;100.00
7407;BME280;3745;56.964;24.128;2024-01-15T07:51:45;98016.31;;;0.42;100.00
7407;BME280;3745;56.964;24.128;2024-01-15T07:54:10;97957.91;;;0.01;100.00
7407;BME280;3745;56.964;24.128;2024-01-15T07:57:12;98012.91;;;0.34;100.00
7407;BME280;3745;56.964;24.128;2024-01-15T07:59:38;98011.28;;;0.36;100.00
7407;BME280;3745;56.964;24.128;2024-01-15T08:02:04;98003.00;;;0.40;100.00
7407;BME280;3745;56.964;24.128;2024-01-15T08:04:30;98002.19;;;0.41;100.00
7407;BME280;3745;56.964;24.128;2024-01-15T08:06:56;97999.69;;;0.41;100.00
7407;BME280;3745;56.964;24.128;2024-01-15T08:09:23;97994.78;;;0.50;100.00
7407;BME280;3745;56.964;24.128;2024-01-15T08:11:48;97993.13;;;0.49;100.00
7407;BME280;3745;56.964;24.128;2024-01-15T08:14:17;97984.88;;;0.53;100.00
7407;BME280;3745;56.964;24.128;2024-01-15T08:16:43;97964.94;;;0.47;100.00
7407;BME280;3745;56.964;24.128;2024-01-15T08:19:09;97978.22;;;0.52;100.00
7407;BME280;3745;56.964;24.128;2024-01-15T08:21:34;97918.31;;;0.22;100.00
7407;BME280;3745;56.964;24.128;2024-01-15T08:24:00;97954.97;;;0.44;100.00
7407;BME280;3745;56.964;24.128;2024-01-15T08:26:28;97983.25;;;0.59;100.00
7407;BME280;3745;56.964;24.128;2024-01-15T08:28:54;97976.69;;;0.67;100.00
7407;BME280;3745;56.964;24.128;2024-01-15T08:31:20;97941.72;;;0.48;100.00
7407;BME280;3745;56.964;24.128;2024-01-15T08:33:46;97971.69;;;0.64;100.00
7407;BME280;3745;56.964;24.128;2024-01-15T08:36:12;97964.28;;;0.73;100.00
7407;BME280;3745;56.964;24.128;2024-01-15T08:38:59;97940.19;;;0.69;100.00
7407;BME280;3745;56.964;24.128;2024-01-15T08:41:26;97956.84;;;0.76;100.00
7407;BME280;3745;56.964;24.128;2024-01-15T08:43:51;97928.47;;;0.52;100.00
7407;BME280;3745;56.964;24.128;2024-01-15T08:46:18;97936.88;;;0.67;100.00
7407;BME280;3745;56.964;24.128;2024-01-15T08:48:44;97900.16;;;0.32;100.00
7407;BME280;3745;56.964;24.128;2024-01-15T08:51:09;97950.16;;;0.72;100.00
7407;BME280;3745;56.964;24.128;2024-01-15T08:53:35;97920.28;;;0.66;100.00
7407;BME280;3745;56.964;24.128;2024-01-15T08:56:01;97919.47;;;0.67;100.00
7407;BME280;3745;56.964;24.128;2024-01-15T08:58:27;97938.66;;;0.86;100.00
7407;BME280;3745;56.964;24.128;2024-01-15T09:00:53;97935.34;;;0.90;100.00
7407;BME280;3745;56.964;24.128;2024-01-15T09:03:22;97912.06;;;0.79;100.00
7407;BME280;3745;56.964;24.128;2024-01-15T09:05:47;97912.03;;;0.73;100.00
7407;BME280;3745;56.964;24.128;2024-01-15T09:08:15;97927.91;;;0.94;100.00
7407;BME280;3745;56.964;24.128;2024-01-15T09:10:41;97925.44;;;1.02;100.00
7407;BME280;3745;56.964;24.128;2024-01-15T09:13:06;97892.19;;;0.88;100.00
7407;BME280;3745;56.964;24.128;2024-01-15T09:15:32;97928.81;;;1.10;100.00
7407;BME280;3745;56.964;24.128;2024-01-15T09:17:57;97872.22;;;0.76;100.00
7407;BME280;3745;56.964;24.128;2024-01-15T09:20:24;97908.88;;;1.10;100.00
7407;BME280;3745;56.964;24.128;2024-01-15T09:22:51;97912.22;;;1.12;100.00
7407;BME280;3745;56.964;24.128;2024-01-15T09:25:17;97907.22;;;1.12;100.00
7407;BME280;3745;56.964;24.128;2024-01-15T09:27:42;97900.56;;;1.05;100.00
7407;BME280;3745;56.964;24.128;2024-01-15T09:30:08;97905.53;;;1.05;100.00
7407;BME280;3745;56.964;24.128;2024-01-15T09:32:34;97908.91;;;1.13;100.00
7407;BME280;3745;56.964;24.128;2024-01-15T09:34:59;97890.59;;;1.05;100.00
7407;BME280;3745;56.964;24.128;2024-01-15T09:37:25;97869.78;;;0.86;100.00
7407;BME280;3745;56.964;24.128;2024-01-15T09:39:51;97839.06;;;0.74;100.00
7407;BME280;3745;56.964;24.128;2024-01-15T09:42:17;97907.22;;;1.15;100.00
7407;BME280;3745;56.964;24.128;2024-01-15T09:44:43;97888.97;;;1.13;100.00
7407;BME280;3745;56.964;24.128;2024-01-15T09:47:09;97904.75;;;1.18;100.00
7407;BME280;3745;56.964;24.128;2024-01-15T09:49:36;97902.31;;;1.30;100.00
7407;BME280;3745;56.964;24.128;2024-01-15T09:52:04;97875.69;;;1.11;100.00
7407;BME280;3745;56.964;24.128;2024-01-15T09:54:30;97908.94;;;1.28;100.00
7407;BME280;3745;56.964;24.128;2024-01-15T09:56:56;97795.06;;;0.64;100.00
7407;BME280;3745;56.964;24.128;2024-01-15T09:59:22;97897.31;;;1.24;100.00
7407;BME280;3745;56.964;24.128;2024-01-15T10:01:50;97876.50;;;1.12;100.00
7407;BME280;3745;56.964;24.128;2024-01-15T10:04:17;97852.41;;;1.00;100.00
7407;BME280;3745;56.964;24.128;2024-01-15T10:06:46;97874.06;;;1.22;100.00
7407;BME280;3745;56.964;24.128;2024-01-15T10:09:13;97885.72;;;1.29;100.00
7407;BME280;3745;56.964;24.128;2024-01-15T10:11:43;97866.59;;;1.25;100.00
7407;BME280;3745;56.964;24.128;2024-01-15T10:14:09;97882.41;;;1.45;100.00
7407;BME280;3745;56.964;24.128;2024-01-15T10:16:41;97833.38;;;1.16;100.00
7407;BME280;3745;56.964;24.128;2024-01-15T10:19:08;97879.09;;;1.40;100.00
7407;BME280;3745;56.964;24.128;2024-01-15T10:21:35;97874.91;;;1.29;100.00
7407;BME280;3745;56.964;24.128;2024-01-15T10:24:01;97874.09;;;1.28;100.00
7407;BME280;3745;56.964;24.128;2024-01-15T10:26:28;97872.41;;;1.30;100.00
7407;BME280;3745;56.964;24.128;2024-01-15T10:28:55;97840.84;;;1.23;100.00
7407;BME280;3745;56.964;24.128;2024-01-15T10:31:21;97869.13;;;1.40;100.00
7407;BME280;3745;56.964;24.128;2024-01-15T10:33:53;97867.44;;;1.36;100.00
7407;BME280;3745;56.964;24.128;2024-01-15T10:36:19;97874.91;;;1.33;100.00
7407;BME280;3745;56.964;24.128;2024-01-15T10:38:45;97861.63;;;1.28;100.00
7407;BME280;3745;56.964;24.128;2024-01-15T10:41:11;97844.19;;;1.22;100.00
7407;BME280;3745;56.964;24.128;2024-01-15T10:43:37;97827.56;;;1.09;100.00
7407;BME280;3745;56.964;24.128;2024-01-15T10:46:03;97801.00;;;1.03;100.00
7407;BME280;3745;56.964;24.128;2024-01-15T10:48:30;97789.34;;;0.95;100.00
7407;BME280;3745;56.964;24.128;2024-01-15T10:51:01;97688.03;;;0.33;100.00
7407;BME280;3745;56.964;24.128;2024-01-15T10:53:38;97733.69;;;0.55;100.00
7407;BME280;3745;56.964;24.128;2024-01-15T10:56:08;97850.88;;;1.32;100.00
7407;BME280;3745;56.964;24.128;2024-01-15T10:58:36;97849.19;;;1.31;100.00
7407;BME280;3745;56.964;24.128;2024-01-15T11:01:05;97786.88;;;0.95;100.00
7407;BME280;3745;56.964;24.128;2024-01-15T11:03:32;97840.84;;;1.26;100.00
7407;BME280;3745;56.964;24.128;2024-01-15T11:05:59;97845.03;;;1.33;100.00
7407;BME280;3745;56.964;24.128;2024-01-15T11:08:25;97845.88;;;1.32;100.00
7407;BME280;3745;56.964;24.128;2024-01-15T11:10:52;97846.66;;;1.24;100.00
7407;BME280;3745;56.964;24.128;2024-01-15T11:13:39;97842.53;;;1.30;100.00
7407;BME280;3745;56.964;24.128;2024-01-15T11:16:08;97789.38;;;0.98;100.00
7407;BME280;3745;56.964;24.128;2024-01-15T11:18:36;97830.94;;;1.29;100.00
7407;BME280;3745;56.964;24.128;2024-01-15T11:23:46;97817.63;;;1.36;100.00
7407;BME280;3745;56.964;24.128;2024-01-15T11:26:32;97825.97;;;1.50;100.00
7407;BME280;3745;56.964;24.128;2024-01-15T11:29:00;97794.41;;;1.34;100.00
7407;BME280;3745;56.964;24.128;2024-01-15T11:32:14;97747.88;;;1.12;100.00
7407;BME280;3745;56.964;24.128;2024-01-15T11:34:15;97811.03;;;1.53;100.00
7407;BME280;3745;56.964;24.128;2024-01-15T11:42:00;97817.66;;;1.48;100.00
7407;BME280;3745;56.964;24.128;2024-01-15T11:44:30;97779.47;;;1.28;100.00
7407;BME280;3745;56.964;24.128;2024-01-15T11:47:09;97792.72;;;1.36;100.00
7407;BME280;3745;56.964;24.128;2024-01-15T11:50:10;97812.66;;;1.48;100.00
7407;BME280;3745;56.964;24.128;2024-01-15T11:52:38;97816.81;;;1.54;100.00
7407;BME280;3745;56.964;24.128;2024-01-15T11:55:22;97780.28;;;1.33;100.00
7407;BME280;3745;56.964;24.128;2024-01-15T11:57:52;97777.78;;;1.33;100.00
7407;BME280;3745;56.964;24.128;2024-01-15T12:00:23;97811.84;;;1.52;100.00
7407;BME280;3745;56.964;24.128;2024-01-15T12:02:50;97804.38;;;1.52;100.00
7407;BME280;3745;56.964;24.128;2024-01-15T12:05:19;97806.88;;;1.58;100.00
7407;BME280;3745;56.964;24.128;2024-01-15T12:07:49;97773.66;;;1.41;100.00
7407;BME280;3745;56.964;24.128;2024-01-15T12:10:17;97797.72;;;1.63;100.00
7407;BME280;3745;56.964;24.128;2024-01-15T12:13:11;97790.25;;;1.47;100.00
7407;BME280;3745;56.964;24.128;2024-01-15T12:15:38;97794.41;;;1.49;100.00
7407;BME280;3745;56.964;24.128;2024-01-15T12:18:08;97781.94;;;1.48;100.00
7407;BME280;3745;56.964;24.128;2024-01-15T12:20:34;97793.59;;;1.59;100.00
7407;BME280;3745;56.964;24.128;2024-01-15T12:23:01;97781.13;;;1.47;100.00
7407;BME280;3745;56.964;24.128;2024-01-15T12:25:30;97786.09;;;1.46;100.00
7407;BME280;3745;56.964;24.128;2024-01-15T12:27:56;97663.22;;;0.67;100.00
7407;BME280;3745;56.964;24.128;2024-01-15T12:30:23;97652.44;;;0.60;100.00
7407;BME280;3745;56.964;24.128;2024-01-15T12:32:49;97743.75;;;1.28;100.00
7407;BME280;3745;56.964;24.128;2024-01-15T12:35:15;97788.59;;;1.50;100.00
7407;BME280;3745;56.964;24.128;2024-01-15T12:37:42;97781.13;;;1.41;100.00
7407;BME280;3745;56.964;24.128;2024-01-15T12:40:08;97649.97;;;0.68;100.00
7407;BME280;3745;56.964;24.128;2024-01-15T12:42:39;97748.75;;;1.32;100.00
7407;BME280;3745;56.964;24.128;2024-01-15T12:45:09;97774.47;;;1.43;100.00
7407;BME280;3745;56.964;24.128;2024-01-15T12:47:36;97777.78;;;1.45;100.00
7407;BME280;3745;56.964;24.128;2024-01-15T12:50:02;97777.78;;;1.42;100.00
7407;BME280;3745;56.964;24.128;2024-01-15T12:52:32;97779.47;;;1.40;100.00
7407;BME280;3745;56.964;24.128;2024-01-15T12:54:58;97721.31;;;1.17;100.00
7407;BME280;3745;56.964;24.128;2024-01-15T12:57:23;97764.53;;;1.46;100.00
7407;BME280;3745;56.964;24.128;2024-01-15T12:59:49;97731.28;;;1.17;100.00
7407;BME280;3745;56.964;24.128;2024-01-15T13:02:16;97762.00;;;1.36;100.00
7407;BME280;3745;56.964;24.128;2024-01-15T13:04:44;97723.00;;;1.09;100.00
7407;BME280;3745;56.964;24.128;2024-01-15T13:07:10;97766.19;;;1.29;100.00
7407;BME280;3745;56.964;24.128;2024-01-15T13:09:35;97765.34;;;1.32;100.00
7407;BME280;3745;56.964;24.128;2024-01-15T13:12:02;97717.19;;;1.08;100.00
7407;BME280;3745;56.964;24.128;2024-01-15T13:14:28;97754.56;;;1.25;100.00